createdAt,value
2023-05-18T00:00:31.123Z,27.30
2023-05-18T00:02:58.367Z,20.40
2023-05-18T00:05:25.445Z,24.00
2023-05-18T00:07:53.390Z,24.70
2023-05-18T00:10:20.531Z,23.20
2023-05-18T00:12:47.792Z,23.60
2023-05-18T00:15:14.709Z,22.90
2023-05-18T00:17:42.754Z,23.90
2023-05-18T00:20:10.415Z,23.80
2023-05-18T00:22:39.241Z,29.80
2023-05-18T00:25:06.318Z,25.50
2023-05-18T00:27:33.273Z,22.00
2023-05-18T00:30:00.364Z,26.80
2023-05-18T00:32:27.435Z,25.20
2023-05-18T00:34:54.469Z,22.80
2023-05-18T00:37:22.906Z,27.80
2023-05-18T00:39:49.916Z,20.30
2023-05-18T00:42:16.912Z,19.90
2023-05-18T00:44:43.817Z,22.80
2023-05-18T00:48:39.604Z,24.10
2023-05-18T00:51:06.690Z,19.50
2023-05-18T00:53:33.642Z,16.40
2023-05-18T00:56:00.939Z,24.10
2023-05-18T00:58:28.253Z,22.90
2023-05-18T01:00:57.047Z,23.30
2023-05-18T01:03:25.058Z,21.60
2023-05-18T01:05:55.892Z,23.00
2023-05-18T01:08:23.686Z,27.30
2023-05-18T01:10:54.702Z,20.60
2023-05-18T01:13:23.737Z,25.10
2023-05-18T01:15:53.061Z,24.70
2023-05-18T01:18:23.630Z,21.10
2023-05-18T01:20:57.713Z,21.80
2023-05-18T01:23:29.861Z,18.40
2023-05-18T01:25:57.074Z,17.80
2023-05-18T01:28:28.271Z,18.40
2023-05-18T01:30:55.305Z,17.60
2023-05-18T01:33:22.293Z,22.10
2023-05-18T01:35:49.278Z,23.60
2023-05-18T01:38:26.170Z,16.70
2023-05-18T01:41:11.576Z,17.60
2023-05-18T01:43:40.227Z,19.90
2023-05-18T01:46:25.729Z,18.00
2023-05-18T01:48:54.621Z,22.40
2023-05-18T01:51:21.583Z,24.00
2023-05-18T01:54:08.344Z,21.30
2023-05-18T01:56:37.813Z,20.00
2023-05-18T01:59:04.720Z,18.30
2023-05-18T02:01:31.903Z,20.10
2023-05-18T02:03:58.993Z,20.90
2023-05-18T02:06:26.238Z,23.10
2023-05-18T02:08:53.245Z,19.60
2023-05-18T02:11:21.637Z,20.90
2023-05-18T02:13:48.727Z,23.10
2023-05-18T02:16:15.716Z,19.70
2023-05-18T02:18:43.207Z,20.40
2023-05-18T02:21:10.165Z,22.90
2023-05-18T02:23:37.163Z,19.20
2023-05-18T02:26:04.079Z,19.20
2023-05-18T02:28:30.989Z,20.60
2023-05-18T02:31:10.523Z,19.60
2023-05-18T02:33:40.932Z,22.50
2023-05-18T02:36:12.450Z,24.20
2023-05-18T02:38:39.782Z,20.10
2023-05-18T02:41:07.047Z,21.80
2023-05-18T02:43:34.323Z,25.60
2023-05-18T02:46:01.507Z,22.70
2023-05-18T02:48:28.690Z,29.30
2023-05-18T02:50:56.940Z,24.10
2023-05-18T02:53:23.859Z,25.10
2023-05-18T02:55:57.116Z,28.00
2023-05-18T02:58:29.707Z,28.40
2023-05-18T03:01:19.736Z,26.50
2023-05-18T03:03:51.519Z,26.90
2023-05-18T03:06:18.411Z,27.70
2023-05-18T03:08:45.431Z,26.30
2023-05-18T03:11:12.627Z,31.90
2023-05-18T03:13:39.544Z,31.10
2023-05-18T03:16:06.631Z,28.20
2023-05-18T03:18:33.631Z,30.50
2023-05-18T03:21:02.240Z,29.20
2023-05-18T03:23:30.307Z,37.80
2023-05-18T03:25:57.510Z,29.00
2023-05-18T03:28:26.955Z,24.80
2023-05-18T03:31:13.164Z,25.40
2023-05-18T03:33:43.175Z,22.70
2023-05-18T03:36:10.831Z,23.50
2023-05-18T03:38:37.793Z,16.20
2023-05-18T03:41:07.906Z,20.00
2023-05-18T03:43:34.931Z,21.40
2023-05-18T03:46:02.088Z,16.10
2023-05-18T03:48:29.302Z,17.10
2023-05-18T03:50:56.673Z,16.70
2023-05-18T03:53:26.444Z,19.70
2023-05-18T03:55:53.435Z,17.40
2023-05-18T03:58:20.351Z,15.40
2023-05-18T04:00:47.680Z,14.80
2023-05-18T04:03:14.992Z,18.60
2023-05-18T04:05:43.722Z,15.80
2023-05-18T04:08:14.754Z,18.50
2023-05-18T04:10:44.835Z,14.90
2023-05-18T04:13:12.535Z,16.50
2023-05-18T04:15:39.540Z,13.50
2023-05-18T04:18:06.810Z,18.20
2023-05-18T04:20:33.750Z,19.20
2023-05-18T04:23:01.256Z,15.50
2023-05-18T04:25:46.462Z,16.50
2023-05-18T04:28:13.465Z,15.90
2023-05-18T04:30:40.591Z,17.20
2023-05-18T04:33:07.574Z,16.60
2023-05-18T04:35:35.270Z,15.60
2023-05-18T04:38:02.809Z,15.30
2023-05-18T04:40:34.153Z,18.20
2023-05-18T04:43:01.618Z,19.70
2023-05-18T04:45:30.924Z,20.90
2023-05-18T04:47:58.829Z,17.60
2023-05-18T04:50:26.045Z,17.50
2023-05-18T04:52:53.428Z,17.40
2023-05-18T04:55:29.200Z,24.90
2023-05-18T04:58:04.994Z,19.50
2023-05-18T05:00:32.039Z,17.60
2023-05-18T05:02:59.136Z,17.00
2023-05-18T05:05:27.350Z,17.90
2023-05-18T05:07:54.626Z,19.90
2023-05-18T05:10:21.736Z,15.40
2023-05-18T05:12:49.677Z,19.20
2023-05-18T05:15:17.167Z,17.40
2023-05-18T05:17:44.285Z,18.50
2023-05-18T05:20:11.657Z,19.40
2023-05-18T05:22:38.771Z,17.60
2023-05-18T05:25:09.058Z,16.00
2023-05-18T05:27:36.362Z,16.50
2023-05-18T05:30:03.706Z,18.40
2023-05-18T05:32:32.658Z,19.20
2023-05-18T05:35:00.097Z,21.40
2023-05-18T05:37:27.248Z,19.60
2023-05-18T05:39:54.197Z,15.70
2023-05-18T05:42:21.718Z,17.00
2023-05-18T05:44:49.005Z,15.80
2023-05-18T05:47:16.419Z,19.60
2023-05-18T05:49:43.440Z,16.80
2023-05-18T05:52:10.436Z,18.50
2023-05-18T05:54:37.439Z,16.00
2023-05-18T05:57:04.720Z,16.30
2023-05-18T05:59:31.994Z,16.50
2023-05-18T06:01:58.999Z,20.60
2023-05-18T06:04:26.222Z,16.10
2023-05-18T06:06:53.372Z,21.70
2023-05-18T06:09:21.119Z,22.10
2023-05-18T06:11:48.934Z,19.00
2023-05-18T06:14:16.157Z,17.30
2023-05-18T06:16:43.425Z,22.30
2023-05-18T06:19:10.398Z,17.70
2023-05-18T06:21:37.676Z,17.50
2023-05-18T06:24:05.348Z,19.70
2023-05-18T06:26:41.011Z,15.80
2023-05-18T06:29:46.590Z,15.40
2023-05-18T06:32:37.789Z,16.90
2023-05-18T06:35:06.540Z,18.00
2023-05-18T06:37:33.878Z,16.40
2023-05-18T06:40:00.960Z,15.20
2023-05-18T06:42:28.169Z,16.90
2023-05-18T06:45:20.617Z,16.70
2023-05-18T06:47:49.785Z,15.70
2023-05-18T06:50:16.718Z,21.00
2023-05-18T06:52:44.302Z,18.10
2023-05-18T06:55:11.362Z,18.80
2023-05-18T06:57:38.350Z,16.60
2023-05-18T07:00:07.510Z,14.70
2023-05-18T07:02:34.815Z,16.60
2023-05-18T07:05:05.645Z,15.20
2023-05-18T07:07:32.672Z,14.70
2023-05-18T07:09:59.584Z,18.80
2023-05-18T07:12:27.531Z,19.50
2023-05-18T07:14:54.500Z,15.30
2023-05-18T07:17:21.426Z,13.70
2023-05-18T07:19:48.460Z,20.00
2023-05-18T07:22:15.434Z,14.60
2023-05-18T07:24:43.337Z,15.90
2023-05-18T07:27:10.237Z,12.20
2023-05-18T07:29:37.628Z,15.70
2023-05-18T07:32:04.702Z,13.90
2023-05-18T07:34:32.065Z,14.40
2023-05-18T07:36:59.296Z,16.70
2023-05-18T07:39:29.570Z,13.60
2023-05-18T07:41:56.504Z,16.70
2023-05-18T07:44:23.762Z,15.40
2023-05-18T07:46:50.832Z,13.50
2023-05-18T07:49:17.812Z,13.30
2023-05-18T07:51:44.839Z,13.70
2023-05-18T07:54:11.818Z,12.50
2023-05-18T07:56:40.010Z,14.60
2023-05-18T07:59:07.276Z,12.70
2023-05-18T08:01:34.205Z,14.80
2023-05-18T08:04:01.792Z,13.20
2023-05-18T08:06:28.898Z,14.90
2023-05-18T08:08:56.961Z,14.10
2023-05-18T08:11:23.907Z,12.80
2023-05-18T08:13:50.865Z,12.50
2023-05-18T08:16:18.431Z,12.70
2023-05-18T08:18:45.466Z,13.90
2023-05-18T08:21:12.821Z,14.40
2023-05-18T08:23:39.813Z,13.10
2023-05-18T08:26:08.364Z,12.00
2023-05-18T08:28:35.427Z,14.10
2023-05-18T08:31:02.360Z,13.80
2023-05-18T08:33:29.652Z,14.30
2023-05-18T08:35:57.030Z,13.20
2023-05-18T08:38:23.948Z,12.60
2023-05-18T08:40:54.777Z,17.90
2023-05-18T08:43:23.381Z,22.70
2023-05-18T08:45:57.555Z,12.30
2023-05-18T08:48:27.233Z,11.10
2023-05-18T08:50:55.072Z,11.40
2023-05-18T08:53:22.020Z,11.40
2023-05-18T08:55:49.078Z,11.50
2023-05-18T08:58:17.222Z,12.60
2023-05-18T09:00:44.109Z,11.50
2023-05-18T09:03:11.194Z,11.10
2023-05-18T09:05:38.156Z,10.90
2023-05-18T09:08:06.053Z,12.00
2023-05-18T09:10:33.014Z,13.40
2023-05-18T09:12:59.962Z,10.10
2023-05-18T09:15:28.181Z,11.30
2023-05-18T09:17:55.275Z,12.20
2023-05-18T09:20:22.231Z,10.20
2023-05-18T09:22:51.578Z,10.50
2023-05-18T09:25:19.000Z,11.50
2023-05-18T09:27:45.985Z,10.80
2023-05-18T09:30:14.170Z,10.70
2023-05-18T09:32:42.595Z,13.00
2023-05-18T09:35:09.963Z,21.20
2023-05-18T09:37:37.403Z,11.60
2023-05-18T09:40:05.477Z,12.70
2023-05-18T09:42:42.089Z,10.30
2023-05-18T09:45:29.571Z,10.60
2023-05-18T09:47:57.719Z,11.10
2023-05-18T09:50:24.910Z,13.10
2023-05-18T09:52:51.918Z,11.20
2023-05-18T09:55:19.180Z,10.60
2023-05-18T09:57:46.669Z,10.40
2023-05-18T10:00:17.248Z,15.10
2023-05-18T10:02:48.784Z,10.90
2023-05-18T10:05:19.721Z,33.60
2023-05-18T10:07:49.825Z,11.50
2023-05-18T10:10:20.928Z,21.70
2023-05-18T10:12:48.155Z,10.20
2023-05-18T10:15:15.466Z,10.10
2023-05-18T10:17:43.327Z,14.80
2023-05-18T10:20:10.682Z,9.30
2023-05-18T10:22:37.701Z,11.30
2023-05-18T10:25:05.154Z,9.90
2023-05-18T10:27:34.249Z,9.50
2023-05-18T10:30:03.958Z,14.00
2023-05-18T10:32:31.432Z,10.30
2023-05-18T10:34:58.350Z,10.80
2023-05-18T10:37:25.203Z,9.60
2023-05-18T10:39:53.085Z,10.30
2023-05-18T10:42:20.243Z,23.90
2023-05-18T10:44:47.409Z,11.50
2023-05-18T10:47:15.034Z,12.00
2023-05-18T10:49:45.775Z,14.30
2023-05-18T10:52:12.850Z,10.90
2023-05-18T10:54:40.605Z,10.80
2023-05-18T10:57:07.542Z,10.90
2023-05-18T10:59:34.494Z,11.30
2023-05-18T11:02:01.567Z,11.10
2023-05-18T11:04:30.045Z,11.60
2023-05-18T11:07:01.239Z,11.60
2023-05-18T11:09:31.379Z,17.90
2023-05-18T11:11:58.703Z,15.60
2023-05-18T11:14:29.375Z,11.30
2023-05-18T11:17:22.766Z,11.50
2023-05-18T11:20:05.976Z,10.70
2023-05-18T11:23:11.632Z,11.90
2023-05-18T11:25:39.140Z,10.80
2023-05-18T11:28:07.067Z,11.60
2023-05-18T11:30:34.372Z,10.80
2023-05-18T11:33:08.416Z,11.00
2023-05-18T11:38:07.960Z,11.80
2023-05-18T11:40:44.604Z,10.60
2023-05-18T11:43:17.990Z,12.60
2023-05-18T11:45:56.671Z,11.70
2023-05-18T11:48:30.207Z,11.00
2023-05-18T11:50:57.409Z,10.60
2023-05-18T11:53:27.773Z,11.50
2023-05-18T11:55:57.671Z,13.70
2023-05-18T11:58:24.743Z,9.60
2023-05-18T12:00:51.824Z,17.20
2023-05-18T12:03:19.478Z,14.30
2023-05-18T12:05:49.427Z,12.90
2023-05-18T12:08:17.785Z,11.30
2023-05-18T12:10:45.392Z,12.00
2023-05-18T12:13:12.647Z,13.50
2023-05-18T12:15:39.570Z,14.50
2023-05-18T12:18:06.562Z,10.20
2023-05-18T12:20:35.666Z,10.00
2023-05-18T12:23:02.542Z,13.00
2023-05-18T12:25:29.729Z,10.50
2023-05-18T12:27:57.277Z,10.70
2023-05-18T12:30:25.032Z,15.70
2023-05-18T12:32:52.989Z,10.70
2023-05-18T12:35:23.756Z,13.30
2023-05-18T12:37:50.899Z,13.40
2023-05-18T12:40:18.352Z,12.20
2023-05-18T12:42:55.379Z,12.10
2023-05-18T12:45:26.407Z,12.30
2023-05-18T12:47:55.329Z,12.60
2023-05-18T12:50:22.953Z,11.40
2023-05-18T12:52:50.572Z,10.90
2023-05-18T12:55:22.105Z,19.50
2023-05-18T12:58:05.667Z,12.00
2023-05-18T13:00:36.187Z,13.70
2023-05-18T13:03:07.306Z,11.90
2023-05-18T13:06:23.887Z,10.40
2023-05-18T13:08:53.484Z,15.70
2023-05-18T13:11:23.694Z,17.10
2023-05-18T13:14:00.620Z,14.80
2023-05-18T13:16:29.864Z,12.80
2023-05-18T13:19:00.650Z,13.90
2023-05-18T13:21:27.592Z,14.80
2023-05-18T13:23:54.547Z,12.40
2023-05-18T13:26:22.061Z,11.30
2023-05-18T13:28:49.826Z,17.40
2023-05-18T13:31:16.851Z,15.50
2023-05-18T13:33:44.855Z,12.00
2023-05-18T13:36:11.880Z,13.90
2023-05-18T13:38:39.016Z,13.30
2023-05-18T13:41:06.047Z,14.80
2023-05-18T13:43:33.115Z,10.60
2023-05-18T13:46:00.237Z,17.50
2023-05-18T13:48:30.244Z,11.60
2023-05-18T13:50:57.218Z,11.00
2023-05-18T13:53:24.204Z,10.40
2023-05-18T13:55:51.186Z,10.20
2023-05-18T13:58:18.318Z,11.80
2023-05-18T14:00:46.769Z,13.00
2023-05-18T14:03:15.547Z,10.80
2023-05-18T14:05:42.586Z,10.70
2023-05-18T14:08:09.710Z,10.30
2023-05-18T14:10:36.710Z,13.20
2023-05-18T14:13:03.648Z,12.60
2023-05-18T14:15:30.670Z,10.40
2023-05-18T14:17:57.748Z,11.90
2023-05-18T14:20:24.744Z,9.40
2023-05-18T14:22:51.884Z,8.10
2023-05-18T14:25:18.901Z,12.30
2023-05-18T14:27:45.850Z,9.10
2023-05-18T14:30:13.378Z,11.40
2023-05-18T14:32:40.402Z,11.20
2023-05-18T14:35:07.553Z,8.40
2023-05-18T14:37:34.501Z,9.70
2023-05-18T14:40:01.511Z,8.40
2023-05-18T14:42:28.472Z,11.70
2023-05-18T14:44:55.513Z,11.10
2023-05-18T14:47:22.693Z,9.50
2023-05-18T14:49:49.581Z,11.20
2023-05-18T14:52:16.613Z,9.90
2023-05-18T14:54:43.617Z,10.30
2023-05-18T14:57:10.954Z,11.70
2023-05-18T14:59:37.908Z,11.20
2023-05-18T15:02:05.133Z,30.20
2023-05-18T15:04:32.153Z,22.70
2023-05-18T15:06:59.143Z,13.20
2023-05-18T15:09:27.025Z,10.50
2023-05-18T15:11:54.118Z,12.00
2023-05-18T15:14:21.179Z,11.30
2023-05-18T15:16:48.242Z,16.80
2023-05-18T15:19:15.403Z,13.70
2023-05-18T15:21:44.849Z,10.80
2023-05-18T15:24:12.103Z,12.10
2023-05-18T15:26:39.013Z,14.40
2023-05-18T15:29:09.322Z,14.80
2023-05-18T15:31:39.837Z,14.60
2023-05-18T15:34:06.972Z,11.70
2023-05-18T15:36:36.480Z,9.80
2023-05-18T15:39:05.213Z,11.40
2023-05-18T15:41:35.486Z,12.00
2023-05-18T15:44:02.520Z,8.40
2023-05-18T15:46:34.931Z,8.60
2023-05-18T15:49:02.334Z,12.10
2023-05-18T15:51:29.241Z,13.80
2023-05-18T15:53:56.209Z,10.30
2023-05-18T15:56:23.153Z,11.90
2023-05-18T15:58:50.035Z,8.90
2023-05-18T16:01:17.084Z,8.80
2023-05-18T16:03:44.171Z,10.20
2023-05-18T16:06:11.799Z,6.90
2023-05-18T16:08:38.719Z,6.20
2023-05-18T16:11:07.181Z,9.40
2023-05-18T16:13:34.181Z,7.90
2023-05-18T16:16:01.305Z,9.40
2023-05-18T16:18:28.336Z,7.50
2023-05-18T16:20:55.325Z,9.30
2023-05-18T16:23:22.345Z,9.40
2023-05-18T16:25:49.245Z,11.00
2023-05-18T16:28:16.187Z,10.10
2023-05-18T16:30:43.414Z,10.60
2023-05-18T16:33:10.521Z,14.90
2023-05-18T16:35:37.497Z,13.70
2023-05-18T16:38:04.492Z,10.40
2023-05-18T16:40:31.812Z,15.10
2023-05-18T16:42:58.828Z,12.70
2023-05-18T16:45:27.246Z,14.00
2023-05-18T16:47:54.321Z,9.40
2023-05-18T16:50:21.259Z,11.30
2023-05-18T16:52:48.265Z,11.60
2023-05-18T16:55:15.227Z,13.20
2023-05-18T16:57:43.516Z,13.20
2023-05-18T17:00:11.621Z,13.20
2023-05-18T17:02:39.323Z,13.20
2023-05-18T17:05:09.409Z,13.50
2023-05-18T17:07:36.540Z,13.60
2023-05-18T17:10:07.123Z,13.20
2023-05-18T17:12:34.046Z,14.10
2023-05-18T17:15:02.912Z,12.70
2023-05-18T17:17:30.088Z,12.70
2023-05-18T17:19:57.106Z,13.80
2023-05-18T17:22:24.049Z,16.10
2023-05-18T17:24:50.974Z,12.60
2023-05-18T17:27:17.887Z,14.60
2023-05-18T17:29:44.846Z,15.80
2023-05-18T17:32:11.772Z,14.90
2023-05-18T17:34:38.674Z,15.50
2023-05-18T17:37:05.732Z,12.70
2023-05-18T17:39:32.767Z,13.60
2023-05-18T17:42:00.406Z,16.70
2023-05-18T17:44:27.517Z,14.00
2023-05-18T17:46:54.667Z,15.20
2023-05-18T17:49:21.566Z,12.80
2023-05-18T17:51:48.649Z,14.70
2023-05-18T17:54:15.819Z,20.80
2023-05-18T17:56:42.726Z,15.10
2023-05-18T17:59:09.667Z,14.80
2023-05-18T18:01:36.695Z,16.70
2023-05-18T18:04:03.804Z,21.90
2023-05-18T18:06:31.584Z,15.00
2023-05-18T18:08:58.676Z,17.00
2023-05-18T18:11:26.158Z,16.90
2023-05-18T18:13:53.288Z,19.20
2023-05-18T18:16:20.353Z,18.40
2023-05-18T18:18:47.351Z,18.70
2023-05-18T18:21:14.380Z,20.10
2023-05-18T18:23:41.387Z,15.60
2023-05-18T18:26:08.365Z,13.40
2023-05-18T18:28:35.406Z,20.40
2023-05-18T18:31:03.261Z,17.70
2023-05-18T18:33:30.353Z,18.70
2023-05-18T18:35:57.778Z,17.70
2023-05-18T18:38:27.122Z,20.10
2023-05-18T18:41:00.131Z,18.60
2023-05-18T18:43:27.925Z,21.10
2023-05-18T18:45:55.989Z,18.00
2023-05-18T18:48:23.396Z,19.20
2023-05-18T18:50:50.320Z,16.80
2023-05-18T18:53:17.311Z,19.90
2023-05-18T18:55:44.421Z,15.50
2023-05-18T18:58:11.448Z,20.00
2023-05-18T19:00:38.334Z,18.90
2023-05-18T19:03:05.391Z,17.60
2023-05-18T19:05:32.683Z,20.80
2023-05-18T19:07:59.919Z,21.20
2023-05-18T19:10:26.986Z,17.20
2023-05-18T19:12:53.900Z,16.00
2023-05-18T19:15:21.584Z,20.60
2023-05-18T19:17:54.754Z,18.70
2023-05-18T19:20:21.907Z,19.60
2023-05-18T19:22:48.803Z,19.10
2023-05-18T19:25:16.015Z,22.80
2023-05-18T19:27:43.094Z,23.60
2023-05-18T19:30:11.542Z,21.70
2023-05-18T19:32:38.533Z,22.70
2023-05-18T19:35:05.525Z,25.50
2023-05-18T19:37:32.380Z,23.60
2023-05-18T19:39:59.402Z,24.10
2023-05-18T19:42:26.350Z,22.70
2023-05-18T19:44:53.353Z,20.80
2023-05-18T19:47:20.442Z,20.70
2023-05-18T19:49:47.930Z,18.70
2023-05-18T19:52:15.953Z,18.80
2023-05-18T19:54:42.945Z,21.70
2023-05-18T19:57:09.827Z,19.00
2023-05-18T19:59:37.182Z,19.20
2023-05-18T20:02:06.993Z,18.10
2023-05-18T20:04:34.645Z,18.00
2023-05-18T20:07:01.606Z,17.20
2023-05-18T20:09:28.734Z,21.60
2023-05-18T20:11:56.233Z,20.50
2023-05-18T20:14:23.458Z,18.10
2023-05-18T20:16:52.521Z,23.40
2023-05-18T20:19:19.776Z,19.70
2023-05-18T20:21:50.089Z,18.50
2023-05-18T20:24:17.188Z,25.70
2023-05-18T20:26:44.276Z,19.70
2023-05-18T20:29:11.456Z,23.40
2023-05-18T20:31:38.650Z,20.70
2023-05-18T20:34:07.055Z,20.20
2023-05-18T20:36:35.903Z,19.60
2023-05-18T20:39:02.996Z,19.70
2023-05-18T20:41:29.891Z,22.20
2023-05-18T20:43:56.964Z,21.00
2023-05-18T20:46:25.182Z,21.10
2023-05-18T20:48:55.445Z,25.80
2023-05-18T20:51:23.365Z,25.10
2023-05-18T20:53:50.712Z,20.60
2023-05-18T20:56:18.174Z,24.00
2023-05-18T20:58:50.092Z,22.20
2023-05-18T21:01:17.181Z,25.20
2023-05-18T21:03:45.484Z,21.50
2023-05-18T21:06:15.432Z,20.80
2023-05-18T21:08:45.465Z,19.80
2023-05-18T21:11:12.432Z,17.60
2023-05-18T21:13:39.298Z,22.70
2023-05-18T21:16:24.931Z,20.80
2023-05-18T21:18:52.015Z,21.90
2023-05-18T21:21:18.938Z,24.40
2023-05-18T21:23:45.857Z,24.00
2023-05-18T21:26:12.768Z,27.00
2023-05-18T21:28:39.752Z,32.30
2023-05-18T21:31:07.150Z,23.00
2023-05-18T21:33:34.570Z,26.80
2023-05-18T21:36:04.656Z,19.60
2023-05-18T21:38:31.766Z,20.30
2023-05-18T21:40:58.690Z,23.00
2023-05-18T21:43:25.718Z,21.40
2023-05-18T21:45:52.712Z,21.80
2023-05-18T21:48:19.649Z,18.70
2023-05-18T21:50:46.512Z,21.20
2023-05-18T21:53:13.504Z,17.90
2023-05-18T21:55:40.770Z,17.70
2023-05-18T21:58:07.744Z,19.20
2023-05-18T22:00:35.627Z,21.50
2023-05-18T22:03:02.759Z,24.70
2023-05-18T22:05:29.741Z,17.30
2023-05-18T22:07:59.264Z,20.60
2023-05-18T22:10:26.265Z,19.60
2023-05-18T22:12:53.133Z,18.80
2023-05-18T22:15:22.545Z,19.40
2023-05-18T22:17:49.779Z,16.00
2023-05-18T22:20:17.355Z,19.00
2023-05-18T22:22:44.604Z,18.30
2023-05-18T22:25:12.262Z,20.80
2023-05-18T22:27:39.221Z,20.10
2023-05-18T22:30:06.980Z,18.60
2023-05-18T22:32:34.048Z,16.00
2023-05-18T22:35:01.329Z,16.80
2023-05-18T22:37:28.307Z,16.50
2023-05-18T22:39:55.359Z,19.60
2023-05-18T22:42:22.249Z,24.10
2023-05-18T22:44:49.309Z,26.00
2023-05-18T22:47:20.024Z,28.40
2023-05-18T22:49:47.711Z,27.40
2023-05-18T22:52:14.651Z,26.20
2023-05-18T22:54:41.577Z,29.80
2023-05-18T22:57:08.509Z,23.50
2023-05-18T22:59:35.472Z,23.40
2023-05-18T23:02:02.430Z,21.80
2023-05-18T23:04:29.349Z,21.40
2023-05-18T23:06:57.171Z,21.40
2023-05-18T23:09:27.154Z,19.40
2023-05-18T23:11:59.767Z,22.40
2023-05-18T23:14:28.185Z,21.00
2023-05-18T23:16:58.371Z,19.40
2023-05-18T23:19:27.036Z,22.60
2023-05-18T23:21:53.992Z,21.00
2023-05-18T23:24:20.946Z,17.30
2023-05-18T23:26:47.932Z,22.20
2023-05-18T23:29:14.874Z,17.50
2023-05-18T23:31:41.813Z,21.00
2023-05-18T23:34:08.934Z,21.30
2023-05-18T23:36:35.970Z,22.30
2023-05-18T23:39:02.971Z,22.90
2023-05-18T23:41:30.320Z,23.70
2023-05-18T23:43:57.493Z,19.70
2023-05-18T23:46:24.461Z,22.80
2023-05-18T23:48:54.960Z,20.00
2023-05-18T23:51:21.985Z,21.90
2023-05-18T23:53:49.824Z,18.90
2023-05-18T23:56:16.865Z,15.70
2023-05-18T23:58:44.567Z,20.30
